createdAt,value
2023-03-02T00:00:57.876Z,22.40
2023-03-02T00:03:24.749Z,21.60
2023-03-02T00:05:51.666Z,20.73
2023-03-02T00:08:18.496Z,20.03
2023-03-02T00:10:45.808Z,19.00
2023-03-02T00:13:12.957Z,21.53
2023-03-02T00:15:39.979Z,21.17
2023-03-02T00:18:06.817Z,20.10
2023-03-02T00:20:35.009Z,19.70
2023-03-02T00:23:01.824Z,20.97
2023-03-02T00:25:28.912Z,18.77
2023-03-02T00:27:55.785Z,21.43
2023-03-02T00:30:22.549Z,21.10
2023-03-02T00:32:49.382Z,21.13
2023-03-02T00:35:16.505Z,20.00
2023-03-02T00:37:43.528Z,21.43
2023-03-02T00:40:10.944Z,20.17
2023-03-02T00:42:38.084Z,21.57
2023-03-02T00:45:06.018Z,20.13
2023-03-02T00:47:36.784Z,18.97
2023-03-02T00:50:05.056Z,20.70
2023-03-02T00:52:32.513Z,21.67
2023-03-02T00:54:59.539Z,24.17
2023-03-02T00:57:26.481Z,22.50
2023-03-02T00:59:53.343Z,21.47
2023-03-02T01:02:21.861Z,24.00
2023-03-02T01:04:48.888Z,19.77
2023-03-02T01:07:17.384Z,19.07
2023-03-02T01:09:44.697Z,21.97
2023-03-02T01:12:11.602Z,21.70
2023-03-02T01:14:39.192Z,20.30
2023-03-02T01:17:06.696Z,24.10
2023-03-02T01:19:33.721Z,23.43
2023-03-02T01:22:00.611Z,22.37
2023-03-02T01:24:27.429Z,22.20
2023-03-02T01:26:54.359Z,22.17
2023-03-02T01:29:21.194Z,21.33
2023-03-02T01:31:48.077Z,22.80
2023-03-02T01:34:15.019Z,20.73
2023-03-02T01:36:44.919Z,20.60
2023-03-02T01:41:46.104Z,17.33
2023-03-02T01:46:59.581Z,16.97
2023-03-02T01:49:26.390Z,21.37
2023-03-02T01:51:53.412Z,21.57
2023-03-02T01:54:23.325Z,21.03
2023-03-02T01:56:51.429Z,23.03
2023-03-02T01:59:19.727Z,21.80
2023-03-02T02:01:50.606Z,22.17
2023-03-02T02:04:17.796Z,22.60
2023-03-02T02:07:00.957Z,22.03
2023-03-02T02:09:28.465Z,19.07
2023-03-02T02:11:55.276Z,18.87
2023-03-02T02:14:22.254Z,19.77
2023-03-02T02:16:49.049Z,18.63
2023-03-02T02:19:24.743Z,18.83
2023-03-02T02:21:51.509Z,19.50
2023-03-02T02:24:23.245Z,20.87
2023-03-02T02:26:51.994Z,19.53
2023-03-02T02:29:25.216Z,19.70
2023-03-02T02:31:54.121Z,21.20
2023-03-02T02:34:36.238Z,20.03
2023-03-02T02:37:28.786Z,19.17
2023-03-02T02:39:55.875Z,20.73
2023-03-02T02:42:28.898Z,19.30
2023-03-02T02:44:57.798Z,19.50
2023-03-02T02:47:24.598Z,19.10
2023-03-02T02:49:52.921Z,19.57
2023-03-02T02:52:20.948Z,19.23
2023-03-02T02:54:50.526Z,20.07
2023-03-02T02:57:17.949Z,18.92
2023-03-02T02:59:52.875Z,20.93
2023-03-02T03:02:28.592Z,18.87
2023-03-02T03:05:02.939Z,20.73
2023-03-02T03:07:32.728Z,19.50
2023-03-02T03:10:24.704Z,18.52
2023-03-02T03:12:51.914Z,18.87
2023-03-02T03:15:18.766Z,16.70
2023-03-02T03:17:55.304Z,18.77
2023-03-02T03:20:22.129Z,14.67
2023-03-02T03:22:48.972Z,16.87
2023-03-02T03:25:16.012Z,19.93
2023-03-02T03:27:43.124Z,15.07
2023-03-02T03:30:12.138Z,17.33
2023-03-02T03:32:39.201Z,16.38
2023-03-02T03:35:08.933Z,17.43
2023-03-02T03:37:35.777Z,13.80
2023-03-02T03:40:02.871Z,16.87
2023-03-02T03:42:29.608Z,13.87
2023-03-02T03:44:56.349Z,16.00
2023-03-02T03:47:23.274Z,13.80
2023-03-02T03:49:50.133Z,11.83
2023-03-02T03:52:16.857Z,14.93
2023-03-02T03:54:43.752Z,12.90
2023-03-02T03:57:12.282Z,16.13
2023-03-02T03:59:39.026Z,13.30
2023-03-02T04:02:06.091Z,12.90
2023-03-02T04:04:34.184Z,17.43
2023-03-02T04:07:00.929Z,15.20
2023-03-02T04:09:27.981Z,16.10
2023-03-02T04:11:55.546Z,17.60
2023-03-02T04:14:22.980Z,20.50
2023-03-02T04:16:49.980Z,17.40
2023-03-02T04:19:17.796Z,15.80
2023-03-02T04:21:47.646Z,15.20
2023-03-02T04:24:14.731Z,18.13
2023-03-02T04:26:42.743Z,16.83
2023-03-02T04:29:09.931Z,18.60
2023-03-02T04:31:36.735Z,15.50
2023-03-02T04:34:06.314Z,14.67
2023-03-02T04:36:34.589Z,14.02
2023-03-02T04:39:01.750Z,17.17
2023-03-02T04:41:28.477Z,17.27
2023-03-02T04:43:55.379Z,16.17
2023-03-02T04:46:23.781Z,16.17
2023-03-02T04:48:50.618Z,15.37
2023-03-02T04:51:26.394Z,14.37
2023-03-02T04:53:57.714Z,15.60
2023-03-02T04:56:24.618Z,15.73
2023-03-02T04:58:51.870Z,14.97
2023-03-02T05:01:18.696Z,13.93
2023-03-02T05:03:45.641Z,13.37
2023-03-02T05:06:12.631Z,13.27
2023-03-02T05:08:39.493Z,12.87
2023-03-02T05:11:06.724Z,10.37
2023-03-02T05:13:33.961Z,12.40
2023-03-02T05:16:00.804Z,12.03
2023-03-02T05:18:27.586Z,14.17
2023-03-02T05:20:54.602Z,14.37
2023-03-02T05:23:25.540Z,14.00
2023-03-02T05:25:55.304Z,12.27
2023-03-02T05:28:23.444Z,13.63
2023-03-02T05:30:50.427Z,14.50
2023-03-02T05:33:17.484Z,16.60
2023-03-02T05:35:44.454Z,16.50
2023-03-02T05:38:11.845Z,15.00
2023-03-02T05:40:39.568Z,13.73
2023-03-02T05:43:06.453Z,16.50
2023-03-02T05:45:35.559Z,15.67
2023-03-02T05:48:02.610Z,15.35
2023-03-02T05:50:29.360Z,14.63
2023-03-02T05:52:56.165Z,15.33
2023-03-02T05:55:22.983Z,14.80
2023-03-02T05:57:49.910Z,13.30
2023-03-02T06:00:17.374Z,14.07
2023-03-02T06:02:44.366Z,13.63
2023-03-02T06:05:16.347Z,13.10
2023-03-02T06:07:43.349Z,11.10
2023-03-02T06:10:11.321Z,12.47
2023-03-02T06:12:38.399Z,12.83
2023-03-02T06:15:07.518Z,13.07
2023-03-02T06:17:34.335Z,13.38
2023-03-02T06:20:01.257Z,16.80
2023-03-02T06:22:28.031Z,15.23
2023-03-02T06:24:57.982Z,15.63
2023-03-02T06:29:51.578Z,12.07
2023-03-02T06:32:18.561Z,14.57
2023-03-02T06:34:45.571Z,10.47
2023-03-02T06:37:12.295Z,11.33
2023-03-02T06:39:39.389Z,11.47
2023-03-02T06:42:06.486Z,13.47
2023-03-02T06:44:33.237Z,14.00
2023-03-02T06:47:00.126Z,17.50
2023-03-02T06:49:27.218Z,11.17
2023-03-02T06:51:54.032Z,11.17
2023-03-02T06:54:22.632Z,11.13
2023-03-02T06:59:17.340Z,10.43
2023-03-02T07:01:44.297Z,12.47
2023-03-02T07:04:11.093Z,10.50
2023-03-02T07:06:37.980Z,11.10
2023-03-02T07:09:04.789Z,12.07
2023-03-02T07:11:31.763Z,12.23
2023-03-02T07:14:00.566Z,12.33
2023-03-02T07:16:27.715Z,11.80
2023-03-02T07:18:54.736Z,12.37
2023-03-02T07:21:21.772Z,12.50
2023-03-02T07:23:48.611Z,16.10
2023-03-02T07:26:15.394Z,14.80
2023-03-02T07:28:43.593Z,16.20
2023-03-02T07:31:11.145Z,13.27
2023-03-02T07:33:38.758Z,12.43
2023-03-02T07:36:06.824Z,11.90
2023-03-02T07:38:33.744Z,16.37
2023-03-02T07:41:00.690Z,15.30
2023-03-02T07:43:29.009Z,13.47
2023-03-02T07:45:56.400Z,15.70
2023-03-02T07:48:23.993Z,14.30
2023-03-02T07:50:50.805Z,14.00
2023-03-02T07:53:17.566Z,12.83
2023-03-02T07:55:44.727Z,12.90
2023-03-02T07:58:11.645Z,13.00
2023-03-02T08:00:41.261Z,13.50
2023-03-02T08:03:09.375Z,11.47
2023-03-02T08:05:36.386Z,16.20
2023-03-02T08:08:03.128Z,14.07
2023-03-02T08:10:29.868Z,12.67
2023-03-02T08:12:56.858Z,15.23
2023-03-02T08:15:23.811Z,13.93
2023-03-02T08:17:50.702Z,13.07
2023-03-02T08:20:17.651Z,11.43
2023-03-02T08:22:44.383Z,15.83
2023-03-02T08:25:11.205Z,16.13
2023-03-02T08:27:40.445Z,13.93
2023-03-02T08:30:07.696Z,14.90
2023-03-02T08:32:34.673Z,13.37
2023-03-02T08:35:01.682Z,13.60
2023-03-02T08:37:28.730Z,16.00
2023-03-02T08:39:57.488Z,14.93
2023-03-02T08:42:25.465Z,14.00
2023-03-02T08:44:52.310Z,13.83
2023-03-02T08:47:19.042Z,16.10
2023-03-02T08:49:47.985Z,16.83
2023-03-02T08:52:15.565Z,14.40
2023-03-02T08:54:42.518Z,15.90
2023-03-02T08:57:12.518Z,11.77
2023-03-02T08:59:39.287Z,11.50
2023-03-02T09:02:06.092Z,11.40
2023-03-02T09:04:32.987Z,15.47
2023-03-02T09:06:59.722Z,12.17
2023-03-02T09:09:26.597Z,13.07
2023-03-02T09:11:53.525Z,11.20
2023-03-02T09:14:20.326Z,14.23
2023-03-02T09:16:47.606Z,11.10
2023-03-02T09:19:14.668Z,12.60
2023-03-02T09:21:41.506Z,12.68
2023-03-02T09:24:08.536Z,12.35
2023-03-02T09:26:36.341Z,13.57
2023-03-02T09:29:03.143Z,13.20
2023-03-02T09:31:30.499Z,11.82
2023-03-02T09:33:57.561Z,11.77
2023-03-02T09:36:25.152Z,11.60
2023-03-02T09:38:52.293Z,11.43
2023-03-02T09:41:19.472Z,12.50
2023-03-02T09:44:17.062Z,11.43
2023-03-02T09:46:56.668Z,12.43
2023-03-02T09:49:41.707Z,13.25
2023-03-02T09:52:29.434Z,13.13
2023-03-02T09:54:57.265Z,12.35
2023-03-02T09:57:31.760Z,11.35
2023-03-02T10:00:19.257Z,11.55
2023-03-02T10:03:17.222Z,10.70
2023-03-02T10:05:46.354Z,13.20
2023-03-02T10:08:34.521Z,10.68
2023-03-02T10:11:35.479Z,12.48
2023-03-02T10:14:13.747Z,11.65
2023-03-02T10:16:53.427Z,13.30
2023-03-02T10:19:28.824Z,11.32
2023-03-02T10:22:09.559Z,12.25
2023-03-02T10:24:38.845Z,11.63
2023-03-02T10:27:28.358Z,10.80
2023-03-02T10:30:09.254Z,11.55
2023-03-02T10:32:37.599Z,10.63
2023-03-02T10:35:30.918Z,11.60
2023-03-02T10:38:20.648Z,11.55
2023-03-02T10:43:37.535Z,12.90
2023-03-02T10:46:07.823Z,10.65
2023-03-02T10:48:53.437Z,12.02
2023-03-02T10:51:28.137Z,11.93
2023-03-02T10:54:10.918Z,13.75
2023-03-02T10:56:37.928Z,12.77
2023-03-02T10:59:40.513Z,12.90
2023-03-02T11:02:23.741Z,11.55
2023-03-02T11:04:58.373Z,14.63
2023-03-02T11:07:29.262Z,14.35
2023-03-02T11:10:01.997Z,11.77
2023-03-02T11:12:29.250Z,12.30
2023-03-02T11:15:12.383Z,12.20
2023-03-02T11:17:39.307Z,14.40
2023-03-02T11:20:06.944Z,11.63
2023-03-02T11:22:38.900Z,13.02
2023-03-02T11:25:07.044Z,12.77
2023-03-02T11:27:35.202Z,11.57
2023-03-02T11:30:18.927Z,15.95
2023-03-02T11:33:16.592Z,12.57
2023-03-02T11:35:49.497Z,11.65
2023-03-02T11:38:49.086Z,13.25
2023-03-02T11:41:27.609Z,12.93
2023-03-02T11:43:55.059Z,13.60
2023-03-02T11:46:27.628Z,12.35
2023-03-02T11:48:55.889Z,14.95
2023-03-02T11:51:24.464Z,14.05
2023-03-02T11:54:20.157Z,13.50
2023-03-02T11:56:47.131Z,13.35
2023-03-02T11:59:17.084Z,13.55
2023-03-02T12:01:45.370Z,11.93
2023-03-02T12:04:32.768Z,12.03
2023-03-02T12:07:05.143Z,11.75
2023-03-02T12:09:36.718Z,12.95
2023-03-02T12:12:23.875Z,16.98
2023-03-02T12:14:50.725Z,12.40
2023-03-02T12:17:26.831Z,12.90
2023-03-02T12:20:08.896Z,11.13
2023-03-02T12:22:36.080Z,13.50
2023-03-02T12:25:21.303Z,12.43
2023-03-02T12:27:49.807Z,11.52
2023-03-02T12:30:16.870Z,14.00
2023-03-02T12:32:44.778Z,12.20
2023-03-02T12:35:13.143Z,9.98
2023-03-02T12:37:53.613Z,10.68
2023-03-02T12:40:45.303Z,11.88
2023-03-02T12:43:27.881Z,11.43
2023-03-02T12:46:32.671Z,12.57
2023-03-02T12:49:11.575Z,13.75
2023-03-02T12:51:48.922Z,12.60
2023-03-02T12:54:17.840Z,10.50
2023-03-02T12:59:25.539Z,11.95
2023-03-02T13:01:52.386Z,14.85
2023-03-02T13:04:26.156Z,13.27
2023-03-02T13:06:53.934Z,11.25
2023-03-02T13:09:21.169Z,12.18
2023-03-02T13:11:49.486Z,11.23
2023-03-02T13:14:20.089Z,11.23
2023-03-02T13:16:54.853Z,11.38
2023-03-02T13:19:21.654Z,12.68
2023-03-02T13:21:48.557Z,10.82
2023-03-02T13:24:34.870Z,11.75
2023-03-02T13:27:08.451Z,13.00
2023-03-02T13:29:35.669Z,11.43
2023-03-02T13:32:42.223Z,12.05
2023-03-02T13:35:26.578Z,11.32
2023-03-02T13:37:59.005Z,11.52
2023-03-02T13:40:39.258Z,13.48
2023-03-02T13:43:40.619Z,12.82
2023-03-02T13:46:13.860Z,12.20
2023-03-02T13:48:40.624Z,12.02
2023-03-02T13:51:17.771Z,11.70
2023-03-02T13:54:00.768Z,11.88
2023-03-02T13:56:33.257Z,12.02
2023-03-02T13:59:00.952Z,14.45
2023-03-02T14:01:28.325Z,13.93
2023-03-02T14:03:57.321Z,15.60
2023-03-02T14:06:24.140Z,11.05
2023-03-02T14:08:50.959Z,11.40
2023-03-02T14:11:18.085Z,11.52
2023-03-02T14:13:51.415Z,15.18
2023-03-02T14:16:18.851Z,11.25
2023-03-02T14:18:47.132Z,11.82
2023-03-02T14:21:20.895Z,11.63
2023-03-02T14:23:47.845Z,11.77
2023-03-02T14:26:33.610Z,11.88
2023-03-02T14:29:06.298Z,11.70
2023-03-02T14:31:34.510Z,12.18
2023-03-02T14:34:02.010Z,16.05
2023-03-02T14:36:33.247Z,12.68
2023-03-02T14:39:02.186Z,11.55
2023-03-02T14:41:29.201Z,12.35
2023-03-02T14:43:55.945Z,11.65
2023-03-02T14:46:22.967Z,11.98
2023-03-02T14:48:49.825Z,11.60
2023-03-02T14:51:24.785Z,12.38
2023-03-02T14:53:51.905Z,11.70
2023-03-02T14:56:20.248Z,11.35
2023-03-02T14:58:47.212Z,11.18
2023-03-02T15:01:14.064Z,13.23
2023-03-02T15:03:40.923Z,11.32
2023-03-02T15:06:26.542Z,14.57
2023-03-02T15:08:54.668Z,11.35
2023-03-02T15:11:21.540Z,12.60
2023-03-02T15:13:48.489Z,10.93
2023-03-02T15:16:15.705Z,10.88
2023-03-02T15:18:42.603Z,11.05
2023-03-02T15:21:18.742Z,10.65
2023-03-02T15:23:45.581Z,10.25
2023-03-02T15:26:13.986Z,11.15
2023-03-02T15:28:41.424Z,11.30
2023-03-02T15:31:09.885Z,14.68
2023-03-02T15:33:36.873Z,10.15
2023-03-02T15:36:06.582Z,9.43
2023-03-02T15:38:34.289Z,9.65
2023-03-02T15:41:11.611Z,9.20
2023-03-02T15:43:38.461Z,9.38
2023-03-02T15:46:09.668Z,10.68
2023-03-02T15:48:37.043Z,9.50
2023-03-02T15:51:05.422Z,10.38
2023-03-02T15:53:35.049Z,10.23
2023-03-02T15:56:10.600Z,13.00
2023-03-02T15:58:37.459Z,10.15
2023-03-02T16:01:08.467Z,11.25
2023-03-02T16:03:35.415Z,10.23
2023-03-02T16:06:02.543Z,13.48
2023-03-02T16:08:29.367Z,13.23
2023-03-02T16:10:59.988Z,12.40
2023-03-02T16:13:26.961Z,13.65
2023-03-02T16:15:54.338Z,10.60
2023-03-02T16:18:21.189Z,9.95
2023-03-02T16:20:47.928Z,9.80
2023-03-02T16:23:16.275Z,10.85
2023-03-02T16:25:50.140Z,10.13
2023-03-02T16:28:17.732Z,10.38
2023-03-02T16:30:44.752Z,10.80
2023-03-02T16:33:16.436Z,10.13
2023-03-02T16:35:43.304Z,10.88
2023-03-02T16:38:10.218Z,10.07
2023-03-02T16:40:40.221Z,10.75
2023-03-02T16:43:09.128Z,11.00
2023-03-02T16:45:36.203Z,11.03
2023-03-02T16:48:04.314Z,9.52
2023-03-02T16:50:31.195Z,9.90
2023-03-02T16:52:59.320Z,12.23
2023-03-02T16:55:26.335Z,9.80
2023-03-02T16:57:53.131Z,9.90
2023-03-02T17:00:20.513Z,11.60
2023-03-02T17:02:47.596Z,11.18
2023-03-02T17:05:14.899Z,11.15
2023-03-02T17:07:41.840Z,11.45
2023-03-02T17:10:09.847Z,10.60
2023-03-02T17:12:36.596Z,10.98
2023-03-02T17:15:03.583Z,9.90
2023-03-02T17:17:31.190Z,10.40
2023-03-02T17:19:58.104Z,10.23
2023-03-02T17:22:25.144Z,10.67
2023-03-02T17:24:52.083Z,10.13
2023-03-02T17:27:24.985Z,11.93
2023-03-02T17:29:52.698Z,10.90
2023-03-02T17:32:19.570Z,10.18
2023-03-02T17:34:47.030Z,10.25
2023-03-02T17:37:14.313Z,11.70
2023-03-02T17:39:41.345Z,10.37
2023-03-02T17:42:08.157Z,9.70
2023-03-02T17:44:37.672Z,11.00
2023-03-02T17:47:06.500Z,10.75
2023-03-02T17:49:33.260Z,10.73
2023-03-02T17:52:00.340Z,12.77
2023-03-02T17:54:27.298Z,11.40
2023-03-02T17:56:54.053Z,11.40
2023-03-02T17:59:21.053Z,12.07
2023-03-02T18:01:47.863Z,12.13
2023-03-02T18:04:14.729Z,11.67
2023-03-02T18:06:41.665Z,11.63
2023-03-02T18:09:08.497Z,14.33
2023-03-02T18:11:35.310Z,10.80
2023-03-02T18:14:02.326Z,10.20
2023-03-02T18:16:29.534Z,12.03
2023-03-02T18:18:57.501Z,11.33
2023-03-02T18:21:24.531Z,13.10
2023-03-02T18:23:51.520Z,12.33
2023-03-02T18:26:20.563Z,11.07
2023-03-02T18:28:47.500Z,13.23
2023-03-02T18:31:15.203Z,11.63
2023-03-02T18:33:42.054Z,12.83
2023-03-02T18:36:09.263Z,13.70
2023-03-02T18:38:36.176Z,13.67
2023-03-02T18:41:04.098Z,13.10
2023-03-02T18:43:35.081Z,16.70
2023-03-02T18:46:04.109Z,14.50
2023-03-02T18:48:31.477Z,14.43
2023-03-02T18:50:58.687Z,12.13
2023-03-02T18:53:26.620Z,11.23
2023-03-02T18:55:56.570Z,12.83
2023-03-02T18:58:24.016Z,13.20
2023-03-02T19:00:51.848Z,10.67
2023-03-02T19:03:18.634Z,10.23
2023-03-02T19:05:45.599Z,13.80
2023-03-02T19:08:12.461Z,12.33
2023-03-02T19:10:39.917Z,23.40
2023-03-02T19:13:09.464Z,15.13
2023-03-02T19:15:38.357Z,12.75
2023-03-02T19:18:05.257Z,17.27
2023-03-02T19:20:32.381Z,13.67
2023-03-02T19:22:59.226Z,13.13
2023-03-02T19:25:25.992Z,12.40
2023-03-02T19:27:52.889Z,13.30
2023-03-02T19:30:22.592Z,12.70
2023-03-02T19:32:49.466Z,14.05
2023-03-02T19:35:18.155Z,14.20
2023-03-02T19:37:45.143Z,13.13
2023-03-02T19:40:17.482Z,13.30
2023-03-02T19:42:45.622Z,13.87
2023-03-02T19:45:15.448Z,13.00
2023-03-02T19:47:42.741Z,13.00
2023-03-02T19:50:10.153Z,14.97
2023-03-02T19:52:37.652Z,14.73
2023-03-02T19:55:06.535Z,14.33
2023-03-02T19:57:33.580Z,14.53
2023-03-02T20:00:00.396Z,16.20
2023-03-02T20:02:27.374Z,17.47
2023-03-02T20:04:54.250Z,17.33
2023-03-02T20:07:20.967Z,17.73
2023-03-02T20:09:47.838Z,17.87
2023-03-02T20:12:15.922Z,16.73
2023-03-02T20:14:44.451Z,16.23
2023-03-02T20:17:11.455Z,15.13
2023-03-02T20:19:38.334Z,17.97
2023-03-02T20:22:07.004Z,14.73
2023-03-02T20:24:33.999Z,14.70
2023-03-02T20:27:00.853Z,14.83
2023-03-02T20:29:27.736Z,14.73
2023-03-02T20:31:54.710Z,16.67
2023-03-02T20:34:21.535Z,15.87
2023-03-02T20:36:48.393Z,14.50
2023-03-02T20:39:18.531Z,15.40
2023-03-02T20:41:47.752Z,18.40
2023-03-02T20:44:14.971Z,17.52
2023-03-02T20:46:47.722Z,16.60
2023-03-02T20:49:15.525Z,15.63
2023-03-02T20:51:44.021Z,16.33
2023-03-02T20:54:10.865Z,16.40
2023-03-02T20:56:37.690Z,20.73
2023-03-02T20:59:04.612Z,22.10
2023-03-02T21:01:31.603Z,18.10
2023-03-02T21:03:58.684Z,17.33
2023-03-02T21:06:25.512Z,19.10
2023-03-02T21:08:52.809Z,16.30
2023-03-02T21:11:20.885Z,15.17
2023-03-02T21:13:47.919Z,15.50
2023-03-02T21:16:21.040Z,16.00
2023-03-02T21:18:47.823Z,15.20
2023-03-02T21:21:15.801Z,15.63
2023-03-02T21:23:42.874Z,15.57
2023-03-02T21:26:10.500Z,18.57
2023-03-02T21:28:37.480Z,16.70
2023-03-02T21:31:05.074Z,13.80
2023-03-02T21:33:32.125Z,17.33
2023-03-02T21:35:58.898Z,18.17
2023-03-02T21:38:25.865Z,13.97
2023-03-02T21:40:52.894Z,14.50
2023-03-02T21:43:19.857Z,16.37
2023-03-02T21:45:47.448Z,14.87
2023-03-02T21:48:14.544Z,14.13
2023-03-02T21:50:41.382Z,13.67
2023-03-02T21:53:08.709Z,13.10
2023-03-02T21:55:37.008Z,13.80
2023-03-02T21:58:04.030Z,13.83
2023-03-02T22:00:36.112Z,14.50
2023-03-02T22:03:02.947Z,15.37
2023-03-02T22:05:30.287Z,17.00
2023-03-02T22:07:57.453Z,15.93
2023-03-02T22:10:24.289Z,15.27
2023-03-02T22:12:54.840Z,16.63
2023-03-02T22:15:22.572Z,17.03
2023-03-02T22:17:51.381Z,16.87
2023-03-02T22:20:18.958Z,16.13
2023-03-02T22:22:45.942Z,15.47
2023-03-02T22:25:15.726Z,14.93
2023-03-02T22:27:42.720Z,17.10
2023-03-02T22:30:20.561Z,14.23
2023-03-02T22:32:47.572Z,13.63
2023-03-02T22:35:14.826Z,16.90
2023-03-02T22:37:41.999Z,16.13
2023-03-02T22:40:29.325Z,18.07
2023-03-02T22:43:23.202Z,16.40
2023-03-02T22:45:49.981Z,15.60
2023-03-02T22:48:18.214Z,16.87
2023-03-02T22:50:46.359Z,15.93
2023-03-02T22:53:30.389Z,18.53
2023-03-02T22:56:01.861Z,21.87
2023-03-02T22:58:31.771Z,21.37
2023-03-02T23:03:40.263Z,18.90
2023-03-02T23:06:24.360Z,19.70
2023-03-02T23:08:56.081Z,20.00
2023-03-02T23:11:23.476Z,21.47
2023-03-02T23:13:50.583Z,21.63
2023-03-02T23:16:28.309Z,21.03
2023-03-02T23:18:56.385Z,22.47
2023-03-02T23:21:37.740Z,23.70
2023-03-02T23:24:05.041Z,22.40
2023-03-02T23:26:31.994Z,22.10
2023-03-02T23:28:59.116Z,22.77
2023-03-02T23:31:25.914Z,25.47
2023-03-02T23:33:52.831Z,23.77
2023-03-02T23:36:21.309Z,22.53
2023-03-02T23:38:48.986Z,20.53
2023-03-02T23:41:16.010Z,21.87
2023-03-02T23:43:42.861Z,22.03
2023-03-02T23:46:14.037Z,23.57
2023-03-02T23:48:41.772Z,21.83
2023-03-02T23:51:08.911Z,21.43
2023-03-02T23:53:35.744Z,20.90
2023-03-02T23:56:02.480Z,21.77
2023-03-02T23:58:29.434Z,21.90
